createdAt,value
2024-02-17T00:03:30.268Z,102148.25
2024-02-17T00:08:32.166Z,102150.94
2024-02-17T00:13:38.355Z,102158.50
2024-02-17T00:18:40.361Z,102169.16
2024-02-17T00:23:45.206Z,102170.66
2024-02-17T00:28:47.414Z,102175.31
2024-02-17T00:33:54.168Z,102173.34
2024-02-17T00:38:56.192Z,102188.97
2024-02-17T00:43:58.138Z,102187.13
2024-02-17T00:49:02.731Z,102190.75
2024-02-17T00:54:04.945Z,102198.19
2024-02-17T00:59:07.169Z,102208.41
2024-02-17T01:04:09.502Z,102212.91
2024-02-17T01:09:15.043Z,102220.19
2024-02-17T01:14:22.680Z,102231.84
2024-02-17T01:19:24.699Z,102240.69
2024-02-17T01:24:26.731Z,102254.00
2024-02-17T01:29:30.860Z,102241.06
2024-02-17T01:34:35.207Z,102247.53
2024-02-17T01:39:39.474Z,102258.44
2024-02-17T01:44:43.583Z,102264.75
2024-02-17T01:49:48.480Z,102263.72
2024-02-17T01:54:51.076Z,102280.94
2024-02-17T01:59:58.058Z,102281.34
2024-02-17T02:05:02.289Z,102294.06
2024-02-17T02:10:07.169Z,102285.50
2024-02-17T02:15:14.412Z,102284.91
2024-02-17T02:20:17.485Z,102286.97
2024-02-17T02:25:26.753Z,102301.72
2024-02-17T02:30:28.931Z,102300.06
2024-02-17T02:35:30.714Z,102302.84
2024-02-17T02:40:32.642Z,102310.56
2024-02-17T02:45:35.147Z,102318.56
2024-02-17T02:50:37.498Z,102331.03
2024-02-17T02:55:41.861Z,102332.88
2024-02-17T03:00:46.160Z,102342.53
2024-02-17T03:05:50.514Z,102359.41
2024-02-17T03:10:52.383Z,102374.78
2024-02-17T03:15:58.809Z,102377.88
2024-02-17T03:21:00.624Z,102381.78
2024-02-17T03:26:02.480Z,102394.59
2024-02-17T03:31:06.697Z,102398.75
2024-02-17T03:36:08.753Z,102407.47
2024-02-17T03:41:10.481Z,102414.50
2024-02-17T03:46:15.284Z,102430.94
2024-02-17T03:51:19.511Z,102440.03
2024-02-17T03:56:21.436Z,102442.69
2024-02-17T04:01:25.912Z,102447.78
2024-02-17T04:06:31.502Z,102458.75
2024-02-17T04:11:35.589Z,102476.91
2024-02-17T04:16:37.399Z,102482.13
2024-02-17T04:21:39.513Z,102490.09
2024-02-17T04:26:43.981Z,102498.44
2024-02-17T04:31:45.877Z,102510.66
2024-02-17T04:36:47.871Z,102537.38
2024-02-17T04:41:49.715Z,102547.28
2024-02-17T04:46:51.511Z,102548.47
2024-02-17T04:51:55.595Z,102553.56
2024-02-17T04:57:00.491Z,102564.22
2024-02-17T05:02:02.555Z,102567.72
2024-02-17T05:07:06.659Z,102574.97
2024-02-17T05:12:11.074Z,102568.91
2024-02-17T05:17:16.090Z,102572.66
2024-02-17T05:22:20.142Z,102583.31
2024-02-17T05:27:24.308Z,102603.75
2024-02-17T05:32:28.672Z,102599.72
2024-02-17T05:37:39.307Z,102604.81
2024-02-17T05:42:45.172Z,102610.47
2024-02-17T05:47:47.243Z,102627.75
2024-02-17T05:52:50.963Z,102643.97
2024-02-17T05:57:55.336Z,102642.16
2024-02-17T06:02:58.272Z,102656.47
2024-02-17T06:08:00.167Z,102654.13
2024-02-17T06:13:06.400Z,102665.44
2024-02-17T06:18:27.039Z,102679.56
2024-02-17T06:23:29.654Z,102695.94
2024-02-17T06:28:35.336Z,102681.72
2024-02-17T06:33:39.602Z,102681.44
2024-02-17T06:38:43.335Z,102694.44
2024-02-17T06:43:45.832Z,102708.31
2024-02-17T06:48:52.896Z,102715.41
2024-02-17T06:53:58.587Z,102733.75
2024-02-17T06:59:00.563Z,102744.41
2024-02-17T07:04:05.933Z,102758.44
2024-02-17T07:09:08.524Z,102774.75
2024-02-17T07:14:13.503Z,102786.91
2024-02-17T07:19:19.281Z,102788.53
2024-02-17T07:24:24.188Z,102798.03
2024-02-17T07:29:26.625Z,102811.13
2024-02-17T07:34:29.026Z,102816.78
2024-02-17T07:39:31.930Z,102825.97
2024-02-17T07:44:37.620Z,102839.47
2024-02-17T07:49:40.237Z,102844.03
2024-02-17T07:54:44.860Z,102859.16
2024-02-17T07:59:47.411Z,102864.47
2024-02-17T08:04:49.741Z,102888.00
2024-02-17T08:09:51.879Z,102891.69
2024-02-17T08:14:56.947Z,102905.00
2024-02-17T08:20:01.966Z,102911.56
2024-02-17T08:25:10.842Z,102918.06
2024-02-17T08:30:16.767Z,102904.22
2024-02-17T08:35:24.800Z,102926.56
2024-02-17T08:40:27.397Z,102939.31
2024-02-17T08:45:30.693Z,102937.38
2024-02-17T08:50:35.171Z,102948.38
2024-02-17T08:55:38.086Z,102959.09
2024-02-17T09:00:40.753Z,102965.69
2024-02-17T09:05:45.914Z,102972.84
2024-02-17T09:10:51.082Z,102984.53
2024-02-17T09:15:53.386Z,102987.69
2024-02-17T09:20:58.099Z,102984.13
2024-02-17T09:26:03.828Z,102999.09
2024-02-17T09:31:07.231Z,103000.97
2024-02-17T09:36:09.725Z,103008.31
2024-02-17T09:41:12.288Z,103033.91
2024-02-17T09:46:14.774Z,103043.03
2024-02-17T09:51:20.944Z,103044.28
2024-02-17T09:56:26.146Z,103055.16
2024-02-17T10:01:29.144Z,103066.94
2024-02-17T10:06:34.406Z,103079.94
2024-02-17T10:11:37.986Z,103080.66
2024-02-17T10:16:40.985Z,103082.56
2024-02-17T10:21:43.978Z,103082.38
2024-02-17T10:26:52.235Z,103082.16
2024-02-17T10:31:54.364Z,103092.00
2024-02-17T10:36:57.328Z,103099.53
2024-02-17T10:42:02.111Z,103101.09
2024-02-17T10:47:04.207Z,103119.44
2024-02-17T10:52:12.410Z,103125.06
2024-02-17T10:57:15.784Z,103123.38
2024-02-17T11:02:19.976Z,103130.78
2024-02-17T11:07:24.957Z,103134.31
2024-02-17T11:12:30.450Z,103141.09
2024-02-17T11:23:02.078Z,103156.53
2024-02-17T11:28:19.163Z,103164.56
2024-02-17T11:33:28.535Z,103171.13
2024-02-17T11:38:32.096Z,103169.88
2024-02-17T11:43:37.480Z,103173.28
2024-02-17T11:48:41.982Z,103157.88
2024-02-17T11:53:47.278Z,103170.09
2024-02-17T11:58:54.773Z,103183.28
2024-02-17T12:03:58.739Z,103179.53
2024-02-17T12:09:01.447Z,103184.03
2024-02-17T12:14:04.426Z,103185.81
2024-02-17T12:19:11.143Z,103182.63
2024-02-17T12:24:15.731Z,103186.31
2024-02-17T12:29:20.585Z,103191.84
2024-02-17T12:34:33.740Z,103195.94
2024-02-17T12:39:38.436Z,103188.97
2024-02-17T12:44:41.830Z,103198.63
2024-02-17T12:49:43.998Z,103195.00
2024-02-17T12:54:46.454Z,103207.81
2024-02-17T12:59:48.496Z,103206.03
2024-02-17T13:04:50.295Z,103207.50
2024-02-17T13:09:55.981Z,103221.34
2024-02-17T13:15:00.642Z,103234.44
2024-02-17T13:20:06.135Z,103242.03
2024-02-17T13:25:08.450Z,103239.72
2024-02-17T13:30:14.746Z,103243.44
2024-02-17T13:35:20.613Z,103249.38
2024-02-17T13:40:25.529Z,103241.19
2024-02-17T13:45:27.442Z,103247.44
2024-02-17T13:50:29.973Z,103258.91
2024-02-17T13:55:36.815Z,103249.81
2024-02-17T14:00:44.942Z,103248.00
2024-02-17T14:05:52.042Z,103241.75
2024-02-17T14:10:54.256Z,103234.09
2024-02-17T14:15:56.336Z,103245.34
2024-02-17T14:21:06.427Z,103255.47
2024-02-17T14:26:09.058Z,103256.38
2024-02-17T14:31:11.093Z,103260.84
2024-02-17T14:36:13.714Z,103268.53
2024-02-17T14:41:18.026Z,103275.78
2024-02-17T14:46:22.488Z,103269.78
2024-02-17T14:51:24.707Z,103283.72
2024-02-17T14:56:26.852Z,103282.41
2024-02-17T15:01:29.169Z,103277.09
2024-02-17T15:06:31.730Z,103281.31
2024-02-17T15:11:34.439Z,103274.22
2024-02-17T15:16:36.984Z,103283.22
2024-02-17T15:21:38.905Z,103290.69
2024-02-17T15:26:41.010Z,103289.75
2024-02-17T15:31:45.355Z,103303.03
2024-02-17T15:36:49.635Z,103301.38
2024-02-17T15:41:52.860Z,103302.91
2024-02-17T15:46:59.503Z,103297.22
2024-02-17T15:52:04.276Z,103303.22
2024-02-17T15:57:06.492Z,103295.47
2024-02-17T16:02:11.000Z,103304.16
2024-02-17T16:07:16.053Z,103308.03
2024-02-17T16:12:19.689Z,103303.88
2024-02-17T16:17:22.813Z,103297.22
2024-02-17T16:22:24.939Z,103297.56
2024-02-17T16:27:27.425Z,103297.59
2024-02-17T16:32:29.706Z,103310.00
2024-02-17T16:37:34.585Z,103316.31
2024-02-17T16:42:37.733Z,103325.03
2024-02-17T16:47:41.775Z,103317.66
2024-02-17T16:52:43.829Z,103320.81
2024-02-17T16:57:46.206Z,103311.69
2024-02-17T17:02:48.019Z,103316.09
2024-02-17T17:07:49.865Z,103314.69
2024-02-17T17:12:51.751Z,103320.00
2024-02-17T17:17:53.654Z,103319.75
2024-02-17T17:22:57.996Z,103339.53
2024-02-17T17:27:59.909Z,103346.97
2024-02-17T17:33:04.468Z,103348.41
2024-02-17T17:38:08.586Z,103381.13
2024-02-17T17:43:11.561Z,103387.97
2024-02-17T17:48:16.490Z,103392.88
2024-02-17T17:53:18.846Z,103389.97
2024-02-17T17:58:20.711Z,103373.72
2024-02-17T18:03:24.322Z,103359.91
2024-02-17T18:08:27.812Z,103361.34
2024-02-17T18:13:29.897Z,103364.75
2024-02-17T18:18:32.655Z,103350.53
2024-02-17T18:23:42.448Z,103340.69
2024-02-17T18:28:45.176Z,103342.31
2024-02-17T18:33:49.885Z,103344.53
2024-02-17T18:38:52.174Z,103355.31
2024-02-17T18:43:57.813Z,103361.06
2024-02-17T18:48:59.749Z,103367.09
2024-02-17T18:54:05.448Z,103382.47
2024-02-17T18:59:10.209Z,103391.00
2024-02-17T19:04:13.759Z,103382.06
2024-02-17T19:09:15.761Z,103383.34
2024-02-17T19:14:17.640Z,103387.53
2024-02-17T19:19:21.950Z,103387.53
2024-02-17T19:24:27.835Z,103372.28
2024-02-17T19:29:29.935Z,103375.78
2024-02-17T19:34:34.248Z,103372.69
2024-02-17T19:39:36.902Z,103379.72
2024-02-17T19:44:42.149Z,103363.63
2024-02-17T19:49:44.249Z,103361.28
2024-02-17T19:54:48.700Z,103361.38
2024-02-17T19:59:50.711Z,103361.78
2024-02-17T20:04:52.934Z,103352.19
2024-02-17T20:09:57.254Z,103361.16
2024-02-17T20:14:59.277Z,103363.16
2024-02-17T20:20:02.490Z,103369.75
2024-02-17T20:25:14.498Z,103381.47
2024-02-17T20:30:16.892Z,103370.34
2024-02-17T20:35:21.382Z,103366.94
2024-02-17T20:40:28.466Z,103370.34
2024-02-17T20:45:30.796Z,103376.66
2024-02-17T20:50:35.189Z,103362.66
2024-02-17T20:55:40.370Z,103361.28
2024-02-17T21:00:42.353Z,103357.84
2024-02-17T21:05:49.475Z,103364.88
2024-02-17T21:10:53.939Z,103345.88
2024-02-17T21:15:55.936Z,103335.34
2024-02-17T21:20:57.889Z,103341.81
2024-02-17T21:26:02.341Z,103324.78
2024-02-17T21:31:07.316Z,103337.44
2024-02-17T21:36:11.257Z,103332.31
2024-02-17T21:41:13.490Z,103340.22
2024-02-17T21:46:17.796Z,103339.06
2024-02-17T21:51:19.773Z,103321.75
2024-02-17T21:56:21.667Z,103316.59
2024-02-17T22:01:26.019Z,103313.56
2024-02-17T22:06:30.014Z,103315.69
2024-02-17T22:11:31.958Z,103315.78
2024-02-17T22:16:35.350Z,103320.16
2024-02-17T22:21:40.105Z,103305.78
2024-02-17T22:26:44.464Z,103308.38
2024-02-17T22:31:48.752Z,103306.63
2024-02-17T22:36:50.543Z,103298.75
2024-02-17T22:41:56.322Z,103278.09
2024-02-17T22:46:58.533Z,103290.97
2024-02-17T22:52:00.528Z,103284.88
2024-02-17T22:57:02.845Z,103292.66
2024-02-17T23:02:04.714Z,103281.25
2024-02-17T23:07:07.323Z,103279.56
2024-02-17T23:12:11.418Z,103265.28
2024-02-17T23:17:13.464Z,103254.47
2024-02-17T23:22:15.335Z,103259.25
2024-02-17T23:27:18.193Z,103256.22
2024-02-17T23:32:20.238Z,103244.50
2024-02-17T23:37:25.069Z,103236.81
2024-02-17T23:42:26.943Z,103239.38
2024-02-17T23:47:30.973Z,103224.81
2024-02-17T23:52:38.642Z,103221.00
2024-02-17T23:57:40.939Z,103222.69
